Time;durP1;ratioP1;P1;durP2;ratioP2;P2;SDS_P1;SDS_P2;PMS_P1;PMS_P2;Temp;Humidity;BMP_temperature;BMP_pressure;BME280_temperature;BME280_humidity;BME280_pressure;Samples;Min_cycle;Max_cycle;Signal;HPM_P1;HPM_P2
2022/05/07 00:00:14;;;;;;;4.07;2.90;;;12.60;99.90;;;;;;5032774;28;20462;-75
2022/05/07 00:02:40;;;;;;;4.25;2.40;;;12.40;99.90;;;;;;5014883;28;20022;-75
2022/05/07 00:05:06;;;;;;;4.32;2.38;;;12.20;99.90;;;;;;5033017;28;20034;-75
2022/05/07 00:07:31;;;;;;;4.28;2.65;;;12.30;99.90;;;;;;5014893;28;20025;-76
2022/05/07 00:09:57;;;;;;;3.42;2.15;;;12.30;99.90;;;;;;5032994;28;20395;-76
2022/05/07 00:12:22;;;;;;;5.15;2.83;;;12.30;99.90;;;;;;5015349;28;20477;-75
2022/05/07 00:14:48;;;;;;;9.23;2.67;;;12.30;99.90;;;;;;5031119;28;20029;-75
2022/05/07 00:19:57;;;;;;;4.03;2.83;;;12.40;99.90;;;;;;5032970;28;20136;-75
2022/05/07 00:22:23;;;;;;;3.83;2.47;;;12.30;99.90;;;;;;5030993;28;20556;-75
2022/05/07 00:24:49;;;;;;;4.30;2.40;;;12.40;99.90;;;;;;5032356;28;20497;-75
2022/05/07 00:27:15;;;;;;;4.85;2.58;;;12.40;99.90;;;;;;5034273;28;20048;-75
2022/05/07 00:29:41;;;;;;;3.40;2.00;;;12.30;99.90;;;;;;5037530;28;20470;-75
2022/05/07 00:32:07;;;;;;;5.30;2.53;;;12.30;99.90;;;;;;5021756;28;20029;-75
2022/05/07 00:34:33;;;;;;;5.88;2.88;;;12.20;99.90;;;;;;5038861;28;20036;-75
2022/05/07 00:36:58;;;;;;;3.65;2.55;;;12.20;99.90;;;;;;5039059;28;20105;-75
2022/05/07 00:39:25;;;;;;;3.70;2.25;;;12.10;99.90;;;;;;5039286;28;20036;-75
2022/05/07 00:41:51;;;;;;;3.60;2.30;;;12.10;99.90;;;;;;5038923;28;20052;-76
2022/05/07 00:44:17;;;;;;;5.05;2.63;;;12.00;99.90;;;;;;5038047;28;20037;-75
2022/05/07 00:46:46;;;;;;;4.78;2.67;;;11.80;99.90;;;;;;5020950;28;20493;-75
2022/05/07 00:49:12;;;;;;;4.50;2.10;;;11.70;99.90;;;;;;5037921;28;20375;-75
2022/05/07 00:51:38;;;;;;;7.18;2.35;;;11.60;99.90;;;;;;5038447;28;20091;-75
2022/05/07 00:54:08;;;;;;;4.40;2.30;;;11.60;99.90;;;;;;5021760;28;20072;-75
2022/05/07 00:56:36;;;;;;;5.90;2.58;;;11.60;99.90;;;;;;5038903;28;20029;-75
2022/05/07 00:59:03;;;;;;;4.60;2.40;;;11.60;99.90;;;;;;5021812;28;20075;-76
2022/05/07 01:01:29;;;;;;;3.65;2.10;;;11.60;99.90;;;;;;5038683;28;20521;-79
2022/05/07 01:03:55;;;;;;;3.58;2.40;;;11.50;99.90;;;;;;5021710;28;20026;-76
2022/05/07 01:06:21;;;;;;;5.18;2.58;;;11.50;99.90;;;;;;5021505;28;20122;-75
2022/05/07 01:08:48;;;;;;;3.53;2.50;;;11.40;99.90;;;;;;5038680;28;20506;-75
2022/05/07 01:11:18;;;;;;;3.40;2.30;;;11.40;99.90;;;;;;5038049;28;20037;-75
2022/05/07 01:13:45;;;;;;;3.22;2.40;;;11.40;99.90;;;;;;5021033;28;20495;-76
2022/05/07 01:16:12;;;;;;;3.03;2.35;;;11.40;99.90;;;;;;5021628;28;20022;-76
2022/05/07 01:18:38;;;;;;;3.30;2.53;;;11.30;99.90;;;;;;5021058;28;20022;-76
2022/05/07 01:21:12;;;;;;;4.22;2.72;;;11.30;99.90;;;;;;5038734;28;20128;-76
2022/05/07 01:23:40;;;;;;;6.43;2.42;;;11.30;99.90;;;;;;5020948;28;20030;-75
2022/05/07 01:26:06;;;;;;;6.75;2.58;;;11.30;99.90;;;;;;5021464;28;20026;-75
2022/05/07 01:28:31;;;;;;;3.72;2.45;;;11.30;99.90;;;;;;5038508;28;20156;-76
2022/05/07 01:30:57;;;;;;;3.28;2.67;;;11.30;99.90;;;;;;5039102;28;20044;-76
2022/05/07 01:33:22;;;;;;;4.43;2.45;;;11.30;99.90;;;;;;5021317;28;20421;-76
2022/05/07 01:35:49;;;;;;;3.40;2.30;;;11.30;99.90;;;;;;5020563;28;20026;-75
2022/05/07 01:38:14;;;;;;;5.53;2.58;;;11.40;99.90;;;;;;5020853;28;20445;-75
2022/05/07 01:40:40;;;;;;;5.40;2.58;;;11.40;99.90;;;;;;5034296;28;20065;-75
2022/05/07 01:43:05;;;;;;;4.03;2.53;;;11.40;99.90;;;;;;5018357;28;20029;-76
2022/05/07 01:45:31;;;;;;;4.38;2.80;;;11.40;99.90;;;;;;5017782;28;20462;-79
2022/05/07 01:48:13;;;;;;;4.63;2.67;;;11.40;99.90;;;;;;5036068;28;20025;-75
2022/05/07 01:50:40;;;;;;;5.25;2.55;;;11.40;99.90;;;;;;5017616;28;20046;-75
2022/05/07 01:53:11;;;;;;;3.80;2.20;;;11.40;99.90;;;;;;5035641;28;20112;-75
2022/05/07 01:55:37;;;;;;;3.42;2.38;;;11.40;99.90;;;;;;5017801;28;20025;-76
2022/05/07 01:58:04;;;;;;;4.05;2.63;;;11.30;99.90;;;;;;5035717;28;20025;-75
2022/05/07 02:00:30;;;;;;;3.70;2.30;;;11.20;99.90;;;;;;5035665;28;20026;-75
2022/05/07 02:02:57;;;;;;;4.95;2.72;;;11.20;99.90;;;;;;5017263;28;20363;-76
2022/05/07 02:05:24;;;;;;;4.10;2.63;;;11.20;99.90;;;;;;5017904;28;20025;-75
2022/05/07 02:07:50;;;;;;;3.30;2.55;;;11.10;99.90;;;;;;5034582;28;20088;-76
2022/05/07 02:10:15;;;;;;;3.17;2.30;;;11.10;99.90;;;;;;5017566;28;20034;-76
2022/05/07 02:12:41;;;;;;;5.95;2.13;;;11.10;99.90;;;;;;5035097;28;20506;-77
2022/05/07 02:15:07;;;;;;;4.40;2.42;;;11.10;99.90;;;;;;5017542;28;20367;-76
2022/05/07 02:17:33;;;;;;;2.60;1.90;;;11.10;99.90;;;;;;5033766;28;20052;-79
2022/05/07 02:19:58;;;;;;;4.85;2.40;;;11.10;99.90;;;;;;5034825;28;20029;-76
2022/05/07 02:22:24;;;;;;;4.57;2.50;;;11.00;99.90;;;;;;5035001;28;20081;-75
2022/05/07 02:24:50;;;;;;;3.67;2.40;;;11.00;99.90;;;;;;5016584;28;20040;-76
2022/05/07 02:27:15;;;;;;;5.05;2.35;;;11.10;99.90;;;;;;5017134;28;20048;-76
2022/05/07 02:29:41;;;;;;;3.85;2.35;;;11.10;99.90;;;;;;5034198;28;20402;-76
2022/05/07 02:32:07;;;;;;;5.45;2.80;;;11.10;99.90;;;;;;5033304;28;20033;-76
2022/05/07 02:34:34;;;;;;;2.80;2.28;;;11.10;99.90;;;;;;5016879;28;20053;-76
2022/05/07 02:37:00;;;;;;;2.72;2.13;;;11.10;99.90;;;;;;5016822;28;20031;-75
2022/05/07 02:39:26;;;;;;;3.53;2.20;;;11.00;99.90;;;;;;5034408;28;20030;-75
2022/05/07 02:44:36;;;;;;;3.58;2.65;;;10.90;99.90;;;;;;5034137;28;20036;-76
2022/05/07 02:47:03;;;;;;;3.45;2.17;;;10.90;99.90;;;;;;5034658;28;20378;-75
2022/05/07 02:49:29;;;;;;;2.63;2.13;;;10.90;99.90;;;;;;5034186;28;20067;-74
2022/05/07 02:51:54;;;;;;;4.72;2.70;;;10.90;99.90;;;;;;5032759;28;20037;-75
2022/05/07 02:54:20;;;;;;;2.97;2.10;;;10.90;99.90;;;;;;5016178;28;20383;-75
2022/05/07 02:56:46;;;;;;;4.53;2.13;;;10.80;99.90;;;;;;5033366;28;20049;-75
2022/05/07 02:59:11;;;;;;;3.78;2.50;;;10.90;99.90;;;;;;5034088;28;20385;-75
2022/05/07 03:01:37;;;;;;;2.42;2.20;;;10.80;99.90;;;;;;5015886;28;20026;-75
2022/05/07 03:04:02;;;;;;;3.45;2.22;;;10.90;99.90;;;;;;5016321;28;20500;-75
2022/05/07 03:06:28;;;;;;;4.20;2.25;;;10.80;99.90;;;;;;5033662;28;20025;-75
2022/05/07 03:08:53;;;;;;;2.70;2.47;;;10.70;99.90;;;;;;5033681;28;20033;-75
2022/05/07 03:11:19;;;;;;;3.85;2.38;;;10.60;99.90;;;;;;5032620;28;20478;-74
2022/05/07 03:13:45;;;;;;;2.55;2.15;;;10.60;99.90;;;;;;5015717;28;20029;-75
2022/05/07 03:16:10;;;;;;;2.88;2.10;;;10.60;99.90;;;;;;5033748;28;20458;-75
2022/05/07 03:18:36;;;;;;;4.82;2.50;;;10.50;99.90;;;;;;5032469;28;20033;-75
2022/05/07 03:21:02;;;;;;;2.80;2.22;;;10.50;99.90;;;;;;5032116;28;20021;-75
2022/05/07 03:23:28;;;;;;;4.13;2.35;;;10.40;99.90;;;;;;5033719;28;20029;-75
2022/05/07 03:25:55;;;;;;;3.00;2.13;;;10.30;99.90;;;;;;5015391;28;20433;-75
2022/05/07 03:28:20;;;;;;;3.20;2.15;;;10.30;99.90;;;;;;5033551;28;20028;-75
2022/05/07 03:30:46;;;;;;;3.65;2.33;;;10.20;99.90;;;;;;5015298;28;20037;-75
2022/05/07 03:33:12;;;;;;;3.47;2.40;;;10.30;99.90;;;;;;5015948;28;20033;-75
2022/05/07 03:35:39;;;;;;;3.33;2.30;;;10.30;99.90;;;;;;5015482;28;20080;-77
2022/05/07 03:38:04;;;;;;;4.05;2.33;;;10.30;99.90;;;;;;5033639;28;20021;-76
2022/05/07 03:40:32;;;;;;;4.00;2.25;;;10.30;99.90;;;;;;5015790;28;20493;-75
2022/05/07 03:42:58;;;;;;;4.70;2.42;;;10.30;99.90;;;;;;5031317;28;20102;-76
2022/05/07 03:45:24;;;;;;;3.83;2.42;;;10.10;99.90;;;;;;5033335;28;20601;-76
2022/05/07 03:47:50;;;;;;;4.85;3.05;;;10.00;99.90;;;;;;5031578;28;20060;-76
2022/05/07 03:50:15;;;;;;;3.42;2.58;;;10.00;99.90;;;;;;5033143;28;20038;-75
2022/05/07 03:55:25;;;;;;;4.95;2.50;;;10.10;99.90;;;;;;5033080;28;20079;-75
2022/05/07 03:57:51;;;;;;;3.13;2.35;;;10.10;99.90;;;;;;5032827;28;20057;-76
2022/05/07 04:00:16;;;;;;;3.72;2.40;;;10.10;99.90;;;;;;5015455;28;20033;-76
2022/05/07 04:02:42;;;;;;;4.75;2.80;;;10.00;99.90;;;;;;5014445;28;20083;-76
2022/05/07 04:05:08;;;;;;;3.33;2.50;;;10.00;99.90;;;;;;5033284;28;20072;-77
2022/05/07 04:07:34;;;;;;;3.88;2.70;;;10.00;99.90;;;;;;5033096;28;20034;-75
2022/05/07 04:09:59;;;;;;;4.97;2.40;;;10.00;99.90;;;;;;5032626;28;20033;-76
2022/05/07 04:12:25;;;;;;;4.18;2.42;;;10.00;99.90;;;;;;5031937;28;20433;-76
2022/05/07 04:14:50;;;;;;;3.35;2.50;;;10.00;99.90;;;;;;5014925;28;20026;-76
2022/05/07 04:17:16;;;;;;;4.65;2.97;;;9.90;99.90;;;;;;5031668;28;20028;-76
2022/05/07 04:19:41;;;;;;;4.55;2.30;;;9.90;99.90;;;;;;5031299;28;20034;-76
2022/05/07 04:22:07;;;;;;;5.75;2.20;;;10.00;99.90;;;;;;5032590;28;20413;-76
2022/05/07 04:24:33;;;;;;;3.40;2.30;;;9.90;99.90;;;;;;5031652;28;20091;-75
2022/05/07 04:27:00;;;;;;;2.55;2.10;;;9.90;99.90;;;;;;5014603;28;20481;-75
2022/05/07 04:29:25;;;;;;;3.30;2.35;;;9.90;99.90;;;;;;5015132;28;20037;-75
2022/05/07 04:31:51;;;;;;;4.47;2.33;;;9.80;99.90;;;;;;5014641;28;20029;-76
2022/05/07 04:34:17;;;;;;;3.50;2.67;;;9.90;99.90;;;;;;5032450;28;20072;-76
2022/05/07 04:36:42;;;;;;;4.10;2.47;;;9.90;99.90;;;;;;5014581;28;20025;-77
2022/05/07 04:39:08;;;;;;;3.30;2.50;;;9.90;99.90;;;;;;5032729;28;20030;-76
2022/05/07 04:41:34;;;;;;;2.97;2.22;;;9.80;99.90;;;;;;5032656;28;20458;-76
2022/05/07 04:44:01;;;;;;;4.40;2.45;;;9.90;99.90;;;;;;5032335;28;20017;-76
2022/05/07 04:46:27;;;;;;;4.25;2.40;;;9.90;99.90;;;;;;5032984;28;20025;-75
2022/05/07 04:48:52;;;;;;;3.33;2.17;;;9.90;99.90;;;;;;5031987;28;20052;-75
2022/05/07 04:51:18;;;;;;;4.25;2.40;;;10.00;99.90;;;;;;5031092;28;20470;-75
2022/05/07 04:53:44;;;;;;;3.25;2.17;;;10.00;99.90;;;;;;5014318;28;20033;-76
2022/05/07 04:56:10;;;;;;;3.17;2.45;;;10.00;99.90;;;;;;5014784;28;20029;-76
2022/05/07 04:58:36;;;;;;;4.95;2.33;;;10.00;99.90;;;;;;5014808;28;20036;-76
2022/05/07 05:01:02;;;;;;;3.55;2.40;;;9.90;99.90;;;;;;5014265;28;20218;-76
2022/05/07 05:03:28;;;;;;;2.97;2.30;;;9.90;99.90;;;;;;5014726;28;20386;-76
2022/05/07 05:05:53;;;;;;;4.32;2.25;;;9.90;99.90;;;;;;5013914;28;20026;-76
2022/05/07 05:08:19;;;;;;;3.95;2.67;;;9.90;99.90;;;;;;5015170;28;20025;-76
2022/05/07 05:10:45;;;;;;;3.80;2.40;;;10.00;99.90;;;;;;5014741;28;20533;-77
2022/05/07 05:13:11;;;;;;;2.55;2.08;;;10.10;99.90;;;;;;5033164;28;20025;-76
2022/05/07 05:15:37;;;;;;;3.78;2.22;;;10.10;99.90;;;;;;5035629;28;20052;-76
2022/05/07 05:18:03;;;;;;;3.58;2.22;;;10.10;99.90;;;;;;5034863;28;20029;-76
2022/05/07 05:20:29;;;;;;;2.42;2.03;;;10.20;99.90;;;;;;5018841;28;20440;-76
2022/05/07 05:22:54;;;;;;;3.67;2.15;;;10.30;99.90;;;;;;5017555;28;20057;-76
2022/05/07 05:25:20;;;;;;;4.88;2.40;;;10.30;99.90;;;;;;5036543;28;20030;-77
2022/05/07 05:27:47;;;;;;;3.53;2.40;;;10.30;99.90;;;;;;5036234;28;20026;-78
2022/05/07 05:30:13;;;;;;;3.25;2.55;;;10.30;99.90;;;;;;5036206;28;20044;-76
2022/05/07 05:32:38;;;;;;;3.35;2.80;;;10.40;99.90;;;;;;5018434;28;20471;-77
2022/05/07 05:35:05;;;;;;;5.57;2.67;;;10.40;99.90;;;;;;5018107;28;20291;-76
2022/05/07 05:37:30;;;;;;;4.03;2.83;;;10.40;99.90;;;;;;5018711;28;20025;-76
2022/05/07 05:39:56;;;;;;;5.80;3.08;;;10.40;99.90;;;;;;5034629;28;20387;-76
2022/05/07 05:42:22;;;;;;;3.63;2.60;;;10.50;99.90;;;;;;5036101;28;20025;-75
2022/05/07 05:44:48;;;;;;;6.03;2.95;;;10.70;99.90;;;;;;5017401;28;20059;-77
2022/05/07 05:47:13;;;;;;;6.40;3.22;;;10.70;99.90;;;;;;5035671;28;20025;-76
2022/05/07 05:49:39;;;;;;;5.88;3.50;;;10.80;99.90;;;;;;5035708;28;20049;-76
2022/05/07 05:52:07;;;;;;;6.60;3.05;;;10.70;99.90;;;;;;5035199;28;20645;-76
2022/05/07 05:54:34;;;;;;;4.47;3.28;;;10.80;99.90;;;;;;5017824;28;20029;-75
2022/05/07 05:57:00;;;;;;;4.38;3.20;;;10.90;99.90;;;;;;5017275;28;20022;-76
2022/05/07 05:59:26;;;;;;;7.55;3.22;;;10.90;99.90;;;;;;5034470;28;20029;-75
2022/05/07 06:01:52;;;;;;;3.92;3.15;;;10.90;99.90;;;;;;5016992;28;20037;-77
2022/05/07 06:04:18;;;;;;;5.60;3.45;;;11.00;99.90;;;;;;5034212;28;20033;-76
2022/05/07 06:06:44;;;;;;;5.65;3.42;;;11.00;99.90;;;;;;5017804;28;20359;-76
2022/05/07 06:09:09;;;;;;;5.88;3.70;;;11.10;99.90;;;;;;5033551;28;20029;-76
2022/05/07 06:11:35;;;;;;;4.45;3.10;;;11.10;99.90;;;;;;5034922;28;20026;-75
2022/05/07 06:14:01;;;;;;;5.65;2.78;;;11.20;99.90;;;;;;5016877;28;20025;-76
2022/05/07 06:16:26;;;;;;;4.38;2.95;;;11.20;99.90;;;;;;5017572;28;20036;-76
2022/05/07 06:18:52;;;;;;;7.13;3.13;;;11.30;99.90;;;;;;5034653;28;20065;-76
2022/05/07 06:21:17;;;;;;;4.90;3.20;;;11.30;99.90;;;;;;5034239;28;20045;-76
2022/05/07 06:23:43;;;;;;;5.95;3.40;;;11.40;99.90;;;;;;5033794;28;20120;-77
2022/05/07 06:28:53;;;;;;;5.10;3.20;;;11.50;99.90;;;;;;5034398;28;20076;-76
2022/05/07 06:31:19;;;;;;;6.03;2.85;;;11.60;99.90;;;;;;5034880;28;20029;-76
2022/05/07 06:33:45;;;;;;;6.00;2.72;;;11.70;99.90;;;;;;5016346;28;20021;-75
2022/05/07 06:36:11;;;;;;;5.20;3.00;;;11.80;99.90;;;;;;5034296;28;20533;-75
2022/05/07 06:38:37;;;;;;;5.68;3.10;;;11.80;99.90;;;;;;5034739;28;20021;-76
2022/05/07 06:41:04;;;;;;;6.63;2.90;;;11.90;99.90;;;;;;5032939;28;20079;-76
2022/05/07 06:43:31;;;;;;;4.18;3.10;;;11.90;99.90;;;;;;5033354;28;20025;-74
2022/05/07 06:45:57;;;;;;;4.82;3.22;;;12.00;99.90;;;;;;5032793;28;20455;-76
2022/05/07 06:48:24;;;;;;;4.07;2.63;;;12.00;99.90;;;;;;5016891;28;20026;-76
2022/05/07 06:50:50;;;;;;;5.00;3.20;;;12.10;99.90;;;;;;5016095;28;20041;-77
2022/05/07 06:53:16;;;;;;;4.85;2.53;;;12.20;99.90;;;;;;5034421;28;20466;-76
2022/05/07 06:55:59;;;;;;;7.53;3.20;;;12.30;99.90;;;;;;5016700;28;20117;-75
2022/05/07 06:58:33;;;;;;;4.25;3.20;;;12.30;99.90;;;;;;5033520;28;20381;-76
2022/05/07 07:01:01;;;;;;;5.22;2.83;;;12.30;99.90;;;;;;5016250;28;20075;-76
2022/05/07 07:03:27;;;;;;;4.60;2.85;;;12.50;99.90;;;;;;5016318;28;20034;-76
2022/05/07 07:05:55;;;;;;;4.75;2.97;;;12.60;99.90;;;;;;5033426;28;20021;-76
2022/05/07 07:08:21;;;;;;;5.05;2.40;;;12.70;99.90;;;;;;5034018;28;20026;-76
2022/05/07 07:10:47;;;;;;;6.18;3.08;;;12.70;99.90;;;;;;5016213;28;20179;-76
2022/05/07 07:13:13;;;;;;;6.20;3.00;;;12.80;99.90;;;;;;5015356;28;20379;-76
2022/05/07 07:15:39;;;;;;;5.65;2.75;;;12.80;99.90;;;;;;5033759;28;20029;-75
2022/05/07 07:18:09;;;;;;;3.67;2.50;;;12.90;99.90;;;;;;5008267;28;20032;-78
2022/05/07 07:20:39;;;;;;;4.57;2.40;;;12.90;99.90;;;;;;5016015;28;20034;-77
2022/05/07 07:23:05;;;;;;;5.50;2.28;;;12.90;99.90;;;;;;5019747;28;20058;-77
2022/05/07 07:25:31;;;;;;;4.32;2.38;;;12.90;99.90;;;;;;5011631;28;20363;-76
2022/05/07 07:27:57;;;;;;;4.90;2.63;;;13.00;99.90;;;;;;4998565;28;20048;-76
2022/05/07 07:30:22;;;;;;;3.13;2.10;;;13.00;99.90;;;;;;5012226;28;20037;-77
2022/05/07 07:32:48;;;;;;;4.93;2.63;;;13.20;99.90;;;;;;5032879;28;20127;-76
2022/05/07 07:35:14;;;;;;;3.65;1.95;;;13.20;99.90;;;;;;5002328;28;20022;-76
2022/05/07 07:37:39;;;;;;;3.40;2.10;;;13.30;99.90;;;;;;5028871;28;20361;-77
2022/05/07 07:40:06;;;;;;;2.08;1.88;;;13.40;99.90;;;;;;5016478;28;20021;-77
2022/05/07 07:42:31;;;;;;;3.88;1.73;;;13.40;99.90;;;;;;5008587;28;20075;-78
2022/05/07 07:50:27;;;;;;;3.58;2.00;;;13.70;99.90;;;;;;5033419;28;20087;-77
2022/05/07 07:53:04;;;;;;;3.58;1.90;;;13.80;99.90;;;;;;5015514;28;20475;-78
2022/05/07 07:55:30;;;;;;;6.00;2.10;;;13.80;99.90;;;;;;5033492;28;20021;-77
2022/05/07 07:57:57;;;;;;;4.18;2.25;;;13.90;99.90;;;;;;5015417;28;20076;-78
2022/05/07 08:00:24;;;;;;;3.50;2.00;;;13.90;99.90;;;;;;5015843;28;20060;-77
2022/05/07 08:02:52;;;;;;;4.47;2.08;;;14.00;99.90;;;;;;5033527;28;20021;-77
2022/05/07 08:05:24;;;;;;;2.92;1.98;;;14.10;99.90;;;;;;5016087;28;20411;-77
2022/05/07 08:13:19;;;;;;;6.90;2.00;;;14.30;99.90;;;;;;5033433;28;20059;-78
2022/05/07 08:15:45;;;;;;;4.22;1.58;;;14.40;99.90;;;;;;5015920;28;20390;-77
2022/05/07 08:18:12;;;;;;;5.50;1.73;;;14.40;99.90;;;;;;5015413;28;20112;-77
2022/05/07 08:20:38;;;;;;;2.20;1.77;;;14.40;99.90;;;;;;5015846;28;20033;-77
2022/05/07 08:23:04;;;;;;;5.75;1.80;;;14.40;99.90;;;;;;5015387;28;20417;-78
2022/05/07 08:25:29;;;;;;;5.80;2.05;;;14.40;99.90;;;;;;5015697;28;20060;-78
2022/05/07 08:27:55;;;;;;;3.17;1.60;;;14.60;99.90;;;;;;5033089;28;20408;-79
2022/05/07 08:30:20;;;;;;;4.28;1.77;;;14.70;99.90;;;;;;5015613;28;20029;-78
2022/05/07 08:32:46;;;;;;;4.60;2.00;;;14.70;99.90;;;;;;5015743;28;20022;-78
2022/05/07 08:35:12;;;;;;;1.83;1.60;;;14.80;99.90;;;;;;4998956;28;20025;-78
2022/05/07 08:37:37;;;;;;;4.30;2.03;;;14.80;99.90;;;;;;5015643;28;20029;-78
2022/05/07 08:40:03;;;;;;;3.80;2.10;;;14.80;99.90;;;;;;5032684;28;20443;-78
2022/05/07 08:42:30;;;;;;;3.17;1.90;;;14.90;99.90;;;;;;5015803;28;20029;-77
2022/05/07 08:44:56;;;;;;;4.05;1.70;;;14.90;99.90;;;;;;5032768;28;20370;-79
2022/05/07 08:47:23;;;;;;;2.75;1.85;;;14.90;99.90;;;;;;5015786;28;20025;-78
2022/05/07 08:49:50;;;;;;;2.75;1.80;;;15.00;99.90;;;;;;5018695;28;20120;-77
2022/05/07 08:52:17;;;;;;;1.95;1.67;;;15.00;99.90;;;;;;5018500;28;20033;-77
2022/05/07 08:54:45;;;;;;;2.22;1.70;;;15.00;99.90;;;;;;5019444;28;20374;-78
2022/05/07 08:57:12;;;;;;;3.50;1.80;;;15.00;99.90;;;;;;5036708;28;20018;-78
2022/05/07 08:59:38;;;;;;;5.70;1.98;;;15.00;99.90;;;;;;5019319;28;20116;-77
2022/05/07 09:02:04;;;;;;;3.17;2.05;;;15.10;99.90;;;;;;5035373;28;20121;-78
2022/05/07 09:04:30;;;;;;;5.55;1.90;;;15.20;99.90;;;;;;5036797;28;20022;-77
2022/05/07 09:06:57;;;;;;;3.63;1.90;;;15.20;99.90;;;;;;5036454;28;20072;-79
2022/05/07 09:09:23;;;;;;;3.20;1.90;;;15.20;99.90;;;;;;5036856;28;20434;-78
2022/05/07 09:11:49;;;;;;;3.20;2.05;;;15.20;99.90;;;;;;5019089;28;20032;-78
2022/05/07 09:14:18;;;;;;;2.65;1.70;;;15.30;99.90;;;;;;5018450;28;20463;-77
2022/05/07 09:16:46;;;;;;;2.90;1.80;;;15.40;99.90;;;;;;5036715;28;20040;-77
2022/05/07 09:19:23;;;;;;;2.92;1.40;;;15.60;99.90;;;;;;5018551;28;20032;-78
2022/05/07 09:21:49;;;;;;;4.18;1.65;;;15.70;99.70;;;;;;5018847;28;20154;-79
2022/05/07 09:24:15;;;;;;;2.58;1.73;;;15.90;99.10;;;;;;5018395;28;20118;-78
2022/05/07 09:26:43;;;;;;;4.57;1.77;;;15.90;99.40;;;;;;5036438;28;20028;-77
2022/05/07 09:29:13;;;;;;;2.70;1.70;;;15.80;99.40;;;;;;5035833;28;20014;-77
2022/05/07 09:31:41;;;;;;;3.10;1.67;;;15.90;99.50;;;;;;5018851;28;20021;-78
2022/05/07 09:36:56;;;;;;;2.33;1.75;;;16.10;98.50;;;;;;5036211;28;20121;-78
2022/05/07 09:39:21;;;;;;;2.80;1.25;;;16.10;98.50;;;;;;5035641;28;20112;-78
2022/05/07 09:41:54;;;;;;;2.72;1.33;;;16.20;97.40;;;;;;5036040;28;20025;-78
2022/05/07 09:44:24;;;;;;;1.88;1.30;;;16.50;96.10;;;;;;5018127;28;20025;-78
2022/05/07 09:46:50;;;;;;;4.57;1.38;;;16.50;95.60;;;;;;5018443;28;20021;-77
2022/05/07 09:49:16;;;;;;;6.28;1.45;;;16.60;95.70;;;;;;5035490;28;20040;-78
2022/05/07 09:51:43;;;;;;;3.33;1.23;;;16.70;94.90;;;;;;5018612;28;20025;-78
2022/05/07 09:59:38;;;;;;;8.65;1.20;;;17.00;95.80;;;;;;5035467;28;20036;-77
2022/05/07 10:02:16;;;;;;;2.22;1.27;;;17.10;95.60;;;;;;5034793;28;20026;-78
2022/05/07 10:05:12;;;;;;;3.03;1.40;;;17.10;96.30;;;;;;5018214;28;20056;-78
2022/05/07 10:08:00;;;;;;;2.83;1.40;;;17.10;93.90;;;;;;5018180;28;20021;-77
2022/05/07 10:10:29;;;;;;;3.70;1.10;;;17.20;92.90;;;;;;5018263;28;20037;-78
2022/05/07 10:12:59;;;;;;;3.30;1.30;;;17.20;93.00;;;;;;5018097;28;20025;-78
2022/05/07 10:15:25;;;;;;;3.83;1.10;;;17.40;93.90;;;;;;5034526;28;20025;-78
2022/05/07 10:18:02;;;;;;;2.22;1.10;;;17.50;91.30;;;;;;5017854;28;20025;-78
2022/05/07 10:20:39;;;;;;;2.22;0.95;;;17.60;90.90;;;;;;5035483;28;20029;-77
2022/05/07 10:23:07;;;;;;;3.25;0.90;;;17.60;89.30;;;;;;5034884;28;20347;-78
2022/05/07 10:25:32;;;;;;;1.15;0.90;;;17.70;89.10;;;;;;5017716;28;20438;-76
2022/05/07 10:28:13;;;;;;;1.08;0.82;;;17.80;85.30;;;;;;5017755;28;20029;-76
2022/05/07 10:30:50;;;;;;;2.20;0.85;;;17.90;81.10;;;;;;5035440;28;20033;-76
2022/05/07 10:33:18;;;;;;;2.55;1.20;;;18.00;80.90;;;;;;5034735;28;20136;-76
2022/05/07 10:35:51;;;;;;;1.55;1.00;;;18.10;79.70;;;;;;5017510;28;20021;-76
2022/05/07 10:38:28;;;;;;;3.88;1.10;;;18.00;77.90;;;;;;5034704;28;20361;-76
2022/05/07 10:41:01;;;;;;;3.60;0.95;;;18.10;83.00;;;;;;5035149;28;20060;-76
2022/05/07 10:43:34;;;;;;;3.33;1.00;;;18.20;77.00;;;;;;5017435;28;20592;-77
2022/05/07 10:46:21;;;;;;;1.75;1.10;;;18.30;79.10;;;;;;5017546;28;20022;-76
2022/05/07 10:48:47;;;;;;;2.80;1.15;;;18.60;85.30;;;;;;5017539;28;20028;-76
2022/05/07 10:51:50;;;;;;;4.38;1.40;;;18.70;90.00;;;;;;5016696;28;20033;-76
2022/05/07 10:54:23;;;;;;;3.97;1.20;;;18.90;88.70;;;;;;5014513;28;20048;-77
2022/05/07 10:56:51;;;;;;;2.97;1.13;;;19.10;84.30;;;;;;5017417;28;20401;-77
2022/05/07 10:59:17;;;;;;;1.50;1.17;;;19.30;81.60;;;;;;5033048;28;20028;-77
2022/05/07 11:01:43;;;;;;;4.88;1.00;;;19.40;83.00;;;;;;5034940;28;20029;-77
2022/05/07 11:04:12;;;;;;;3.63;1.02;;;19.40;75.50;;;;;;5033080;28;20117;-77
2022/05/07 11:06:44;;;;;;;2.55;0.95;;;19.30;74.00;;;;;;5017108;28;20025;-76
2022/05/07 11:09:15;;;;;;;1.70;0.88;;;19.30;73.50;;;;;;5016172;28;20028;-77
2022/05/07 11:11:44;;;;;;;2.83;1.10;;;19.40;71.10;;;;;;5016442;28;20022;-76
2022/05/07 11:14:11;;;;;;;3.35;1.33;;;19.50;72.20;;;;;;5033954;28;20022;-76
2022/05/07 11:16:41;;;;;;;2.47;1.10;;;19.60;73.90;;;;;;5016745;28;20021;-76
2022/05/07 11:19:07;;;;;;;2.13;0.93;;;19.60;75.70;;;;;;5032256;28;20068;-76
2022/05/07 11:21:36;;;;;;;1.60;0.95;;;19.50;76.20;;;;;;5032962;28;20075;-77
2022/05/07 11:24:02;;;;;;;1.65;1.08;;;19.70;75.60;;;;;;5016334;28;20051;-77
2022/05/07 11:26:28;;;;;;;2.80;0.95;;;19.70;76.10;;;;;;5033498;28;20523;-77
2022/05/07 11:28:55;;;;;;;2.72;1.25;;;19.90;75.60;;;;;;5016148;28;20017;-77
2022/05/07 11:31:32;;;;;;;3.97;1.20;;;19.90;73.40;;;;;;4999193;28;20083;-77
2022/05/07 11:34:13;;;;;;;3.17;0.98;;;20.00;72.10;;;;;;5034072;28;20033;-76
2022/05/07 11:36:39;;;;;;;1.40;0.90;;;20.30;72.00;;;;;;5016183;28;20453;-77
2022/05/07 11:39:09;;;;;;;1.20;0.90;;;20.40;73.20;;;;;;5031703;28;20108;-77
2022/05/07 11:41:55;;;;;;;1.15;0.95;;;20.40;73.40;;;;;;5015583;28;20026;-76
2022/05/07 11:47:23;;;;;;;1.27;1.17;;;20.40;71.40;;;;;;5033200;28;20056;-77
2022/05/07 11:50:04;;;;;;;1.35;0.90;;;20.60;71.90;;;;;;5032357;28;20036;-77
2022/05/07 11:52:30;;;;;;;4.28;0.95;;;20.70;75.30;;;;;;5015618;28;20033;-77
2022/05/07 11:54:56;;;;;;;2.28;1.15;;;20.70;69.80;;;;;;5033449;28;20029;-77
2022/05/07 11:57:35;;;;;;;2.72;1.20;;;20.70;69.40;;;;;;5015380;28;20021;-77
2022/05/07 12:00:18;;;;;;;2.50;1.48;;;20.60;67.40;;;;;;5016064;28;20397;-77
2022/05/07 12:03:19;;;;;;;2.08;1.40;;;20.70;71.20;;;;;;5033434;28;20025;-77
2022/05/07 12:05:48;;;;;;;2.05;1.48;;;20.60;70.50;;;;;;4995140;28;20064;-77
2022/05/07 12:08:29;;;;;;;3.30;1.60;;;20.60;72.00;;;;;;5031741;28;20026;-77
2022/05/07 12:10:55;;;;;;;2.58;1.15;;;20.50;67.20;;;;;;5033282;28;20036;-77
2022/05/07 12:13:23;;;;;;;4.80;1.65;;;20.70;68.50;;;;;;5032686;28;20029;-77
2022/05/07 12:18:36;;;;;;;2.20;1.00;;;20.90;68.10;;;;;;5033382;28;20036;-77
2022/05/07 12:21:02;;;;;;;1.38;1.10;;;20.90;65.80;;;;;;5015435;28;20017;-78
2022/05/07 12:31:40;;;;;;;1.60;1.10;;;20.50;64.30;;;;;;5033064;28;20409;-77
2022/05/07 12:34:06;;;;;;;3.13;0.90;;;20.50;63.40;;;;;;5031891;28;20021;-77
2022/05/07 12:36:32;;;;;;;2.40;1.10;;;20.60;64.00;;;;;;5031472;28;20022;-77
2022/05/07 12:38:59;;;;;;;2.28;1.20;;;20.80;62.50;;;;;;5015590;28;20389;-77
2022/05/07 12:41:29;;;;;;;2.75;0.90;;;20.80;63.00;;;;;;5014898;28;20068;-79
2022/05/07 12:43:57;;;;;;;1.50;1.10;;;20.80;62.70;;;;;;5015272;28;20026;-76
2022/05/07 12:46:24;;;;;;;1.88;1.23;;;20.80;62.80;;;;;;5031161;28;20365;-78
2022/05/07 12:48:50;;;;;;;3.80;1.67;;;20.80;63.00;;;;;;5031839;28;20417;-77
2022/05/07 12:51:16;;;;;;;4.78;1.52;;;20.70;64.00;;;;;;5030831;28;20033;-77
2022/05/07 12:53:41;;;;;;;4.13;1.50;;;20.70;65.60;;;;;;5015083;28;20029;-78
2022/05/07 12:56:07;;;;;;;3.50;1.48;;;20.70;65.30;;;;;;5015210;28;20540;-78
2022/05/07 12:58:37;;;;;;;2.97;1.25;;;21.10;64.00;;;;;;5014409;28;20116;-77
2022/05/07 13:01:03;;;;;;;4.22;1.42;;;21.50;62.90;;;;;;5015202;28;20025;-78
2022/05/07 13:03:28;;;;;;;3.63;1.50;;;21.80;61.30;;;;;;5032290;28;20051;-78
2022/05/07 13:05:54;;;;;;;2.47;1.30;;;22.20;60.40;;;;;;5031532;28;20442;-78
2022/05/07 13:08:20;;;;;;;4.55;1.45;;;22.20;60.00;;;;;;5014640;28;20029;-77
2022/05/07 13:10:46;;;;;;;2.30;1.45;;;22.50;58.80;;;;;;5014922;28;20035;-78
2022/05/07 13:13:12;;;;;;;5.40;1.23;;;22.60;57.90;;;;;;5031220;28;20026;-77
2022/05/07 13:15:38;;;;;;;1.38;1.10;;;22.40;57.90;;;;;;5014929;28;20467;-77
2022/05/07 13:18:12;;;;;;;3.22;1.10;;;22.30;58.30;;;;;;5010990;28;20125;-77
2022/05/07 13:20:40;;;;;;;1.75;1.02;;;22.20;58.20;;;;;;5011101;28;20029;-76
2022/05/07 13:23:07;;;;;;;2.75;1.52;;;22.40;58.00;;;;;;5011376;28;20096;-76
2022/05/07 13:25:33;;;;;;;2.75;1.10;;;22.50;59.80;;;;;;5010915;28;20030;-76
2022/05/07 13:28:03;;;;;;;2.88;1.23;;;22.60;57.80;;;;;;5011508;28;20513;-82
2022/05/07 13:30:29;;;;;;;3.03;1.30;;;22.70;56.40;;;;;;5012365;28;20030;-77
2022/05/07 13:32:58;;;;;;;1.90;1.25;;;22.70;56.60;;;;;;5012614;28;20026;-78